createdAt,value
2023-06-07T00:02:37.018Z,14.67
2023-06-07T00:05:10.630Z,14.02
2023-06-07T00:07:37.698Z,14.40
2023-06-07T00:10:05.551Z,14.59
2023-06-07T00:12:33.356Z,14.57
2023-06-07T00:15:03.613Z,14.55
2023-06-07T00:17:31.571Z,14.22
2023-06-07T00:19:58.787Z,14.53
2023-06-07T00:22:26.492Z,13.84
2023-06-07T00:24:53.930Z,14.11
2023-06-07T00:27:21.221Z,14.28
2023-06-07T00:29:48.362Z,13.43
2023-06-07T00:32:15.706Z,14.29
2023-06-07T00:34:42.881Z,13.90
2023-06-07T00:37:10.068Z,14.13
2023-06-07T00:39:37.159Z,14.25
2023-06-07T00:42:06.555Z,14.05
2023-06-07T00:44:34.349Z,14.18
2023-06-07T00:47:02.260Z,14.03
2023-06-07T00:49:29.954Z,13.96
2023-06-07T00:51:58.350Z,13.94
2023-06-07T00:54:25.494Z,14.07
2023-06-07T00:56:52.536Z,13.93
2023-06-07T00:59:21.487Z,13.53
2023-06-07T01:01:53.367Z,13.74
2023-06-07T01:04:25.176Z,13.79
2023-06-07T01:06:55.353Z,13.75
2023-06-07T01:09:23.044Z,13.75
2023-06-07T01:11:53.534Z,13.72
2023-06-07T01:14:21.501Z,13.25
2023-06-07T01:16:53.446Z,13.72
2023-06-07T01:19:26.448Z,13.37
2023-06-07T01:22:00.329Z,13.19
2023-06-07T01:24:31.137Z,13.39
2023-06-07T01:26:59.082Z,13.76
2023-06-07T01:29:27.495Z,12.53
2023-06-07T01:31:57.861Z,13.74
2023-06-07T01:34:25.634Z,13.43
2023-06-07T01:36:55.072Z,13.02
2023-06-07T01:39:24.703Z,13.55
2023-06-07T01:41:52.969Z,12.41
2023-06-07T01:44:20.974Z,13.32
2023-06-07T01:46:48.489Z,13.42
2023-06-07T01:49:18.960Z,13.21
2023-06-07T01:51:45.958Z,12.65
2023-06-07T01:54:16.032Z,13.22
2023-06-07T01:57:13.494Z,13.13
2023-06-07T01:59:51.641Z,12.83
2023-06-07T02:02:26.463Z,13.00
2023-06-07T02:04:59.311Z,13.02
2023-06-07T02:07:29.583Z,12.63
2023-06-07T02:10:02.459Z,12.80
2023-06-07T02:12:31.195Z,13.09
2023-06-07T02:15:01.357Z,13.08
2023-06-07T02:17:29.904Z,13.06
2023-06-07T02:19:57.915Z,13.06
2023-06-07T02:22:25.032Z,13.00
2023-06-07T02:24:52.091Z,12.64
2023-06-07T02:27:19.153Z,13.02
2023-06-07T02:29:46.071Z,13.01
2023-06-07T02:32:12.990Z,13.05
2023-06-07T02:34:40.657Z,13.09
2023-06-07T02:37:07.525Z,12.78
2023-06-07T02:39:34.546Z,13.08
2023-06-07T02:42:01.419Z,13.03
2023-06-07T02:44:29.430Z,12.82
2023-06-07T02:46:58.509Z,12.90
2023-06-07T02:49:25.813Z,12.36
2023-06-07T02:51:54.163Z,13.11
2023-06-07T02:54:21.761Z,12.73
2023-06-07T02:56:50.063Z,12.98
2023-06-07T02:59:16.800Z,12.99
2023-06-07T03:01:45.363Z,12.88
2023-06-07T03:04:12.765Z,13.02
2023-06-07T03:06:42.508Z,12.84
2023-06-07T03:09:21.682Z,12.95
2023-06-07T03:11:49.980Z,12.87
2023-06-07T03:14:20.965Z,11.66
2023-06-07T03:16:50.903Z,13.20
2023-06-07T03:19:17.760Z,13.22
2023-06-07T03:21:45.811Z,12.77
2023-06-07T03:24:15.153Z,13.23
2023-06-07T03:26:42.497Z,13.29
2023-06-07T03:29:10.928Z,13.07
2023-06-07T03:31:39.474Z,13.42
2023-06-07T03:34:10.041Z,12.46
2023-06-07T03:36:37.054Z,13.59
2023-06-07T03:39:04.162Z,12.23
2023-06-07T03:41:32.377Z,13.38
2023-06-07T03:44:03.526Z,13.67
2023-06-07T03:46:31.160Z,13.74
2023-06-07T03:48:58.658Z,13.23
2023-06-07T03:51:27.277Z,14.03
2023-06-07T03:53:57.363Z,13.97
2023-06-07T03:56:24.319Z,14.54
2023-06-07T03:58:51.662Z,13.90
2023-06-07T04:01:22.811Z,14.87
2023-06-07T04:03:49.747Z,15.00
2023-06-07T04:06:17.637Z,14.80
2023-06-07T04:08:45.086Z,14.20
2023-06-07T04:11:11.746Z,15.38
2023-06-07T04:13:43.143Z,15.49
2023-06-07T04:16:10.599Z,15.52
2023-06-07T04:18:37.618Z,15.26
2023-06-07T04:21:05.151Z,15.83
2023-06-07T04:23:33.283Z,15.47
2023-06-07T04:26:01.619Z,15.31
2023-06-07T04:28:28.828Z,16.16
2023-06-07T04:31:00.236Z,16.27
2023-06-07T04:33:29.024Z,16.36
2023-06-07T04:36:00.528Z,16.05
2023-06-07T04:38:27.705Z,16.62
2023-06-07T04:41:07.329Z,16.47
2023-06-07T04:43:39.058Z,16.53
2023-06-07T04:46:10.560Z,16.99
2023-06-07T04:48:42.324Z,16.95
2023-06-07T04:51:09.632Z,17.13
2023-06-07T04:53:46.144Z,16.96
2023-06-07T04:56:18.506Z,17.33
2023-06-07T04:58:46.187Z,17.38
2023-06-07T05:01:16.993Z,16.29
2023-06-07T05:03:44.203Z,17.21
2023-06-07T05:06:14.313Z,17.54
2023-06-07T05:08:41.695Z,17.58
2023-06-07T05:11:08.489Z,17.61
2023-06-07T05:13:35.353Z,17.69
2023-06-07T05:16:04.215Z,17.75
2023-06-07T05:18:33.255Z,17.90
2023-06-07T05:21:01.687Z,17.99
2023-06-07T05:23:31.178Z,18.12
2023-06-07T05:25:59.887Z,18.15
2023-06-07T05:28:26.655Z,18.03
2023-06-07T05:30:57.448Z,17.99
2023-06-07T05:33:24.898Z,18.46
2023-06-07T05:35:51.635Z,18.46
2023-06-07T05:38:19.179Z,18.63
2023-06-07T05:40:45.953Z,17.61
2023-06-07T05:43:12.882Z,18.57
2023-06-07T05:45:41.981Z,18.62
2023-06-07T05:48:09.538Z,18.83
2023-06-07T05:50:36.302Z,18.99
2023-06-07T05:53:03.236Z,19.14
2023-06-07T05:55:30.116Z,19.27
2023-06-07T05:58:01.688Z,19.35
2023-06-07T06:00:33.044Z,18.88
2023-06-07T06:03:02.879Z,19.25
2023-06-07T06:05:30.225Z,19.59
2023-06-07T06:07:58.380Z,19.35
2023-06-07T06:10:26.620Z,19.83
2023-06-07T06:12:53.500Z,19.44
2023-06-07T06:15:20.352Z,19.73
2023-06-07T06:17:50.374Z,20.01
2023-06-07T06:20:18.003Z,20.24
2023-06-07T06:22:46.192Z,18.99
2023-06-07T06:25:16.031Z,19.82
2023-06-07T06:27:42.791Z,20.31
2023-06-07T06:30:10.062Z,19.10
2023-06-07T06:32:37.810Z,20.42
2023-06-07T06:35:08.495Z,20.57
2023-06-07T06:37:35.300Z,20.77
2023-06-07T06:40:02.186Z,20.58
2023-06-07T06:42:28.987Z,21.07
2023-06-07T06:45:17.849Z,20.56
2023-06-07T06:47:44.700Z,21.22
2023-06-07T06:50:30.092Z,20.74
2023-06-07T06:52:58.925Z,21.49
2023-06-07T06:55:26.003Z,21.56
2023-06-07T06:57:53.064Z,21.51
2023-06-07T07:00:20.371Z,21.15
2023-06-07T07:02:47.249Z,21.82
2023-06-07T07:05:15.275Z,21.80
2023-06-07T07:07:42.672Z,21.77
2023-06-07T07:10:09.866Z,22.34
2023-06-07T07:12:40.241Z,22.49
2023-06-07T07:15:09.857Z,22.08
2023-06-07T07:17:44.696Z,22.18
2023-06-07T07:20:12.621Z,22.11
2023-06-07T07:22:39.944Z,22.54
2023-06-07T07:25:07.714Z,22.58
2023-06-07T07:27:34.805Z,22.40
2023-06-07T07:30:02.840Z,22.48
2023-06-07T07:32:29.927Z,22.58
2023-06-07T07:34:56.846Z,22.42
2023-06-07T07:37:26.752Z,22.95
2023-06-07T07:39:53.515Z,23.07
2023-06-07T07:42:20.287Z,23.24
2023-06-07T07:44:46.998Z,23.32
2023-06-07T07:47:13.924Z,23.58
2023-06-07T07:49:40.910Z,23.31
2023-06-07T07:52:07.956Z,23.67
2023-06-07T07:54:34.926Z,23.69
2023-06-07T07:57:02.483Z,23.93
2023-06-07T07:59:29.372Z,24.20
2023-06-07T08:01:57.031Z,24.29
2023-06-07T08:04:23.923Z,24.04
2023-06-07T08:06:55.260Z,24.16
2023-06-07T08:09:22.308Z,24.27
2023-06-07T08:11:50.092Z,24.54
2023-06-07T08:14:16.936Z,24.21
2023-06-07T08:16:44.308Z,24.05
2023-06-07T08:19:11.713Z,24.20
2023-06-07T08:21:38.825Z,24.39
2023-06-07T08:24:06.507Z,24.48
2023-06-07T08:26:33.435Z,24.49
2023-06-07T08:29:00.351Z,24.85
2023-06-07T08:31:30.167Z,24.75
2023-06-07T08:34:00.661Z,25.02
2023-06-07T08:36:27.659Z,25.15
2023-06-07T08:38:54.555Z,25.28
2023-06-07T08:41:22.501Z,25.26
2023-06-07T08:43:50.778Z,24.98
2023-06-07T08:46:18.452Z,25.28
2023-06-07T08:48:48.818Z,24.89
2023-06-07T08:51:17.912Z,25.13
2023-06-07T08:53:59.491Z,25.79
2023-06-07T08:56:28.817Z,26.06
2023-06-07T08:58:56.405Z,26.35
2023-06-07T09:01:24.603Z,26.21
2023-06-07T09:03:55.261Z,26.18
2023-06-07T09:06:23.568Z,26.28
2023-06-07T09:08:51.007Z,26.40
2023-06-07T09:11:17.824Z,26.50
2023-06-07T09:13:45.270Z,26.53
2023-06-07T09:16:12.984Z,26.37
2023-06-07T09:18:44.613Z,26.45
2023-06-07T09:21:22.430Z,27.24
2023-06-07T09:23:50.615Z,27.65
2023-06-07T09:26:18.712Z,27.94
2023-06-07T09:28:49.054Z,27.62
2023-06-07T09:31:30.208Z,27.78
2023-06-07T09:33:58.187Z,27.51
2023-06-07T09:36:30.213Z,27.49
2023-06-07T09:38:58.328Z,28.10
2023-06-07T09:41:31.449Z,27.92
2023-06-07T09:43:58.561Z,28.32
2023-06-07T09:46:36.633Z,28.41
2023-06-07T09:49:04.491Z,28.29
2023-06-07T09:51:40.453Z,28.38
2023-06-07T09:54:09.118Z,28.24
2023-06-07T09:56:40.670Z,28.41
2023-06-07T09:59:08.029Z,28.26
2023-06-07T10:01:39.495Z,27.18
2023-06-07T10:04:07.431Z,28.50
2023-06-07T10:06:40.240Z,28.75
2023-06-07T10:09:08.943Z,28.64
2023-06-07T10:11:38.044Z,28.85
2023-06-07T10:14:08.978Z,28.87
2023-06-07T10:16:37.688Z,29.21
2023-06-07T10:19:18.989Z,29.21
2023-06-07T10:21:50.733Z,29.36
2023-06-07T10:24:21.795Z,29.55
2023-06-07T10:26:55.205Z,29.73
2023-06-07T10:29:33.511Z,29.99
2023-06-07T10:32:14.334Z,28.39
2023-06-07T10:34:42.362Z,29.72
2023-06-07T10:37:09.208Z,29.88
2023-06-07T10:39:39.298Z,29.19
2023-06-07T10:42:07.919Z,29.67
2023-06-07T10:44:37.650Z,30.45
2023-06-07T10:47:22.824Z,30.66
2023-06-07T10:49:51.955Z,30.89
2023-06-07T10:52:19.344Z,30.55
2023-06-07T10:54:46.613Z,30.36
2023-06-07T10:57:13.802Z,30.11
2023-06-07T10:59:41.327Z,31.47
2023-06-07T11:02:25.580Z,31.73
2023-06-07T11:05:04.547Z,32.32
2023-06-07T11:07:32.765Z,33.57
2023-06-07T11:10:06.589Z,35.63
2023-06-07T11:12:37.453Z,36.29
2023-06-07T11:15:37.712Z,37.32
2023-06-07T11:18:11.163Z,37.71
2023-06-07T11:20:43.905Z,39.33
2023-06-07T11:23:23.873Z,41.09
2023-06-07T11:25:55.380Z,39.57
2023-06-07T11:28:29.388Z,40.53
2023-06-07T11:30:57.464Z,40.66
2023-06-07T11:33:24.968Z,43.24
2023-06-07T11:35:52.250Z,45.57
2023-06-07T11:38:20.471Z,46.51
2023-06-07T11:40:48.255Z,47.80
2023-06-07T11:43:16.900Z,49.66
2023-06-07T11:45:44.770Z,49.60
2023-06-07T11:48:12.019Z,50.40
2023-06-07T11:50:40.638Z,51.71
2023-06-07T11:53:13.475Z,49.99
2023-06-07T11:55:40.899Z,49.38
2023-06-07T11:58:07.673Z,46.20
2023-06-07T12:00:36.525Z,49.45
2023-06-07T12:03:09.215Z,50.50
2023-06-07T12:05:36.425Z,48.83
2023-06-07T12:08:08.821Z,48.45
2023-06-07T12:10:39.608Z,48.94
2023-06-07T12:13:15.194Z,48.43
2023-06-07T12:15:49.311Z,49.01
2023-06-07T12:18:29.380Z,50.96
2023-06-07T12:21:13.704Z,49.67
2023-06-07T12:23:48.939Z,48.25
2023-06-07T12:26:21.789Z,47.10
2023-06-07T12:28:50.925Z,47.95
2023-06-07T12:31:21.084Z,45.98
2023-06-07T12:33:58.714Z,41.75
2023-06-07T12:36:31.182Z,38.91
2023-06-07T12:39:05.419Z,35.70
2023-06-07T12:41:33.861Z,31.61
2023-06-07T12:44:03.224Z,31.89
2023-06-07T12:46:31.012Z,31.55
2023-06-07T12:48:59.587Z,30.47
2023-06-07T12:51:27.075Z,29.81
2023-06-07T12:53:54.541Z,29.54
2023-06-07T12:56:22.386Z,29.99
2023-06-07T12:58:49.669Z,29.65
2023-06-07T13:01:19.561Z,29.67
2023-06-07T13:03:46.902Z,29.05
2023-06-07T13:06:13.746Z,28.70
2023-06-07T13:08:43.915Z,28.58
2023-06-07T13:11:10.949Z,28.86
2023-06-07T13:13:37.809Z,29.11
2023-06-07T13:16:09.008Z,28.98
2023-06-07T13:18:39.876Z,28.98
2023-06-07T13:21:07.224Z,28.57
2023-06-07T13:23:34.615Z,28.23
2023-06-07T13:26:02.859Z,28.13
2023-06-07T13:28:29.696Z,27.90
2023-06-07T13:30:56.873Z,28.07
2023-06-07T13:33:23.813Z,27.07
2023-06-07T13:35:51.442Z,28.69
2023-06-07T13:38:18.295Z,28.65
2023-06-07T13:40:45.656Z,28.74
2023-06-07T13:43:12.418Z,28.50
2023-06-07T13:45:41.743Z,28.23
2023-06-07T13:48:10.262Z,27.94
2023-06-07T13:50:41.768Z,27.92
2023-06-07T13:53:10.628Z,28.66
2023-06-07T13:55:37.763Z,28.95
2023-06-07T13:58:04.726Z,27.93
2023-06-07T14:00:31.990Z,28.57
2023-06-07T14:02:59.008Z,28.87
2023-06-07T14:05:26.068Z,28.87
2023-06-07T14:07:53.023Z,27.21
2023-06-07T14:10:19.970Z,28.27
2023-06-07T14:12:47.505Z,28.22
2023-06-07T14:15:14.304Z,28.37
2023-06-07T14:17:41.508Z,28.56
2023-06-07T14:20:09.216Z,27.86
2023-06-07T14:22:36.040Z,28.41
2023-06-07T14:25:03.226Z,28.73
2023-06-07T14:27:30.338Z,28.76
2023-06-07T14:29:57.077Z,28.48
2023-06-07T14:32:23.984Z,27.47
2023-06-07T14:34:51.292Z,27.81
2023-06-07T14:37:18.242Z,27.35
2023-06-07T14:39:45.127Z,27.85
2023-06-07T14:42:15.272Z,27.39
2023-06-07T14:44:44.235Z,27.38
2023-06-07T14:47:11.232Z,27.29
2023-06-07T14:49:37.974Z,27.31
2023-06-07T14:52:04.801Z,27.29
2023-06-07T14:54:31.716Z,27.39
2023-06-07T14:56:58.467Z,27.38
2023-06-07T14:59:25.403Z,27.22
2023-06-07T15:01:52.424Z,27.32
2023-06-07T15:04:19.375Z,27.42
2023-06-07T15:06:47.306Z,26.93
2023-06-07T15:09:14.129Z,27.48
2023-06-07T15:11:41.080Z,27.38
2023-06-07T15:14:07.912Z,27.15
2023-06-07T15:16:34.853Z,26.98
2023-06-07T15:19:02.470Z,27.15
2023-06-07T15:21:30.505Z,27.00
2023-06-07T15:23:57.421Z,25.84
2023-06-07T15:26:24.200Z,26.60
2023-06-07T15:28:51.583Z,26.52
2023-06-07T15:31:21.358Z,26.60
2023-06-07T15:33:48.604Z,26.68
2023-06-07T15:36:15.559Z,26.52
2023-06-07T15:38:42.658Z,26.94
2023-06-07T15:41:09.673Z,26.72
2023-06-07T15:43:37.555Z,26.41
2023-06-07T15:46:04.909Z,26.35
2023-06-07T15:48:32.094Z,26.72
2023-06-07T15:50:59.031Z,27.10
2023-06-07T15:53:26.237Z,26.53
2023-06-07T15:55:54.619Z,26.93
2023-06-07T15:58:21.571Z,26.72
2023-06-07T16:00:49.457Z,26.91
2023-06-07T16:03:17.879Z,26.91
2023-06-07T16:05:45.202Z,26.34
2023-06-07T16:08:14.278Z,26.66
2023-06-07T16:10:43.435Z,26.93
2023-06-07T16:13:10.579Z,26.94
2023-06-07T16:15:37.905Z,26.88
2023-06-07T16:18:07.556Z,26.70
2023-06-07T16:20:35.256Z,26.85
2023-06-07T16:23:02.149Z,26.47
2023-06-07T16:25:29.279Z,26.62
2023-06-07T16:27:56.533Z,26.82
2023-06-07T16:30:23.776Z,26.27
2023-06-07T16:32:50.785Z,26.74
2023-06-07T16:35:18.112Z,26.73
2023-06-07T16:37:45.787Z,26.74
2023-06-07T16:40:12.980Z,26.74
2023-06-07T16:42:44.446Z,26.27
2023-06-07T16:45:11.967Z,26.45
2023-06-07T16:47:39.623Z,26.44
2023-06-07T16:50:07.454Z,26.34
2023-06-07T16:52:35.142Z,26.16
2023-06-07T16:55:03.501Z,26.38
2023-06-07T16:57:31.310Z,26.32
2023-06-07T16:59:59.490Z,25.92
2023-06-07T17:02:26.647Z,25.24
2023-06-07T17:04:53.632Z,24.54
2023-06-07T17:07:20.653Z,23.59
2023-06-07T17:09:48.150Z,24.04
2023-06-07T17:12:16.751Z,23.78
2023-06-07T17:14:49.357Z,23.41
2023-06-07T17:17:20.197Z,23.02
2023-06-07T17:19:47.177Z,23.08
2023-06-07T17:22:14.405Z,22.95
2023-06-07T17:24:41.451Z,22.47
2023-06-07T17:27:09.119Z,22.57
2023-06-07T17:29:36.303Z,22.48
2023-06-07T17:32:03.752Z,22.09
2023-06-07T17:34:31.070Z,22.08
2023-06-07T17:36:58.210Z,22.19
2023-06-07T17:39:26.324Z,21.74
2023-06-07T17:41:53.462Z,21.92
2023-06-07T17:44:22.916Z,22.04
2023-06-07T17:46:50.065Z,21.49
2023-06-07T17:49:19.666Z,21.77
2023-06-07T17:51:48.507Z,21.85
2023-06-07T17:54:16.775Z,21.77
2023-06-07T17:56:44.050Z,21.51
2023-06-07T17:59:11.370Z,20.91
2023-06-07T18:01:40.913Z,21.66
2023-06-07T18:04:08.427Z,21.65
2023-06-07T18:06:36.900Z,21.53
2023-06-07T18:09:04.270Z,21.32
2023-06-07T18:11:31.777Z,21.57
2023-06-07T18:13:58.911Z,21.48
2023-06-07T18:16:27.027Z,20.97
2023-06-07T18:18:54.017Z,21.25
2023-06-07T18:21:21.102Z,20.25
2023-06-07T18:23:48.434Z,21.27
2023-06-07T18:26:15.616Z,21.09
2023-06-07T18:28:43.644Z,21.17
2023-06-07T18:31:11.063Z,21.16
2023-06-07T18:33:38.241Z,21.16
2023-06-07T18:36:05.640Z,20.30
2023-06-07T18:38:32.630Z,21.15
2023-06-07T18:40:59.445Z,21.10
2023-06-07T18:43:26.640Z,20.13
2023-06-07T18:45:54.126Z,20.73
2023-06-07T18:48:22.341Z,20.94
2023-06-07T18:50:49.342Z,20.96
2023-06-07T18:53:16.276Z,20.80
2023-06-07T18:55:44.360Z,20.79
2023-06-07T18:58:11.738Z,20.72
2023-06-07T19:00:41.379Z,20.84
2023-06-07T19:03:08.827Z,20.83
2023-06-07T19:05:36.207Z,20.80
2023-06-07T19:08:03.232Z,20.69
2023-06-07T19:10:30.464Z,20.64
2023-06-07T19:12:59.038Z,20.78
2023-06-07T19:15:26.643Z,20.75
2023-06-07T19:17:54.030Z,20.72
2023-06-07T19:20:21.040Z,20.59
2023-06-07T19:22:47.940Z,20.52
2023-06-07T19:25:15.979Z,20.41
2023-06-07T19:27:43.430Z,20.52
2023-06-07T19:30:11.256Z,20.42
2023-06-07T19:32:38.711Z,20.04
2023-06-07T19:35:07.219Z,20.22
2023-06-07T19:37:35.238Z,20.37
2023-06-07T19:40:16.867Z,20.18
2023-06-07T19:42:45.470Z,20.33
2023-06-07T19:45:12.969Z,20.33
2023-06-07T19:47:40.350Z,20.17
2023-06-07T19:50:09.012Z,20.30
2023-06-07T19:52:36.348Z,20.07
2023-06-07T19:55:03.726Z,20.24
2023-06-07T19:57:31.679Z,20.01
2023-06-07T19:59:59.265Z,20.22
2023-06-07T20:02:26.931Z,20.27
2023-06-07T20:04:55.236Z,20.25
2023-06-07T20:07:39.685Z,20.12
2023-06-07T20:10:37.323Z,20.32
2023-06-07T20:13:04.768Z,20.32
2023-06-07T20:15:31.922Z,19.91
2023-06-07T20:17:58.948Z,20.27
2023-06-07T20:20:26.509Z,20.10
2023-06-07T20:22:53.622Z,19.91
2023-06-07T20:25:20.612Z,20.14
2023-06-07T20:27:51.123Z,18.83
2023-06-07T20:30:18.440Z,19.88
2023-06-07T20:32:47.541Z,19.59
2023-06-07T20:35:14.577Z,19.56
2023-06-07T20:37:41.765Z,19.87
2023-06-07T20:40:11.422Z,19.35
2023-06-07T20:42:38.826Z,19.84
2023-06-07T20:45:13.527Z,19.79
2023-06-07T20:47:41.146Z,19.75
2023-06-07T20:50:09.675Z,19.76
2023-06-07T20:52:36.637Z,18.40
2023-06-07T20:55:05.347Z,19.78
2023-06-07T20:57:32.833Z,19.52
2023-06-07T21:00:03.311Z,19.60
2023-06-07T21:02:31.072Z,19.11
2023-06-07T21:04:58.713Z,19.66
2023-06-07T21:07:26.343Z,19.35
2023-06-07T21:09:54.733Z,19.23
2023-06-07T21:12:22.154Z,19.35
2023-06-07T21:14:49.832Z,19.07
2023-06-07T21:17:20.503Z,18.95
2023-06-07T21:19:48.530Z,18.85
2023-06-07T21:22:15.600Z,19.07
2023-06-07T21:24:42.574Z,18.92
2023-06-07T21:27:09.608Z,18.76
2023-06-07T21:29:36.829Z,18.36
2023-06-07T21:32:04.608Z,18.95
2023-06-07T21:34:32.019Z,18.59
2023-06-07T21:36:59.849Z,18.93
2023-06-07T21:39:55.851Z,18.79
2023-06-07T21:42:33.368Z,18.74
2023-06-07T21:45:15.513Z,18.83
2023-06-07T21:47:43.999Z,18.49
2023-06-07T21:50:11.445Z,18.78
2023-06-07T21:52:39.288Z,18.31
2023-06-07T21:55:06.566Z,18.66
2023-06-07T21:57:42.961Z,18.57
2023-06-07T22:00:12.279Z,18.45
2023-06-07T22:02:42.143Z,18.42
2023-06-07T22:05:09.426Z,18.39
2023-06-07T22:07:36.312Z,17.59
2023-06-07T22:10:03.881Z,17.99
2023-06-07T22:12:32.178Z,18.26
2023-06-07T22:15:01.863Z,17.54
2023-06-07T22:17:31.960Z,18.20
2023-06-07T22:20:04.414Z,18.18
2023-06-07T22:22:32.078Z,18.13
2023-06-07T22:25:00.506Z,18.07
2023-06-07T22:27:29.930Z,17.99
2023-06-07T22:29:58.756Z,18.01
2023-06-07T22:32:30.451Z,17.70
2023-06-07T22:35:05.066Z,17.87
2023-06-07T22:37:33.908Z,18.07
2023-06-07T22:40:01.738Z,17.15
2023-06-07T22:42:28.673Z,17.11
2023-06-07T22:44:56.145Z,17.88
2023-06-07T22:47:24.994Z,17.91
2023-06-07T22:49:57.903Z,17.85
2023-06-07T22:52:25.158Z,17.11
2023-06-07T22:54:52.217Z,17.58
2023-06-07T22:57:19.353Z,17.51
2023-06-07T22:59:46.270Z,17.37
2023-06-07T23:02:13.355Z,17.48
2023-06-07T23:04:40.410Z,16.82
2023-06-07T23:07:10.432Z,17.01
2023-06-07T23:09:38.145Z,17.32
2023-06-07T23:12:10.103Z,16.49
2023-06-07T23:14:37.612Z,17.29
2023-06-07T23:17:06.123Z,17.19
2023-06-07T23:19:33.546Z,17.19
2023-06-07T23:22:00.605Z,17.19
2023-06-07T23:24:30.883Z,17.14
2023-06-07T23:27:03.003Z,17.14
2023-06-07T23:29:30.574Z,17.14
2023-06-07T23:31:57.854Z,17.11
2023-06-07T23:34:25.918Z,16.88
2023-06-07T23:36:53.085Z,17.09
2023-06-07T23:39:20.274Z,17.01
2023-06-07T23:41:48.300Z,16.97
2023-06-07T23:44:27.202Z,16.54
2023-06-07T23:46:55.629Z,16.59
2023-06-07T23:49:28.323Z,16.25
2023-06-07T23:51:55.278Z,16.01
2023-06-07T23:54:22.544Z,16.69
2023-06-07T23:56:50.147Z,16.60
2023-06-07T23:59:17.013Z,15.42
